Time;durP1;ratioP1;P1;durP2;ratioP2;P2;SDS_P1;SDS_P2;PMS_P1;PMS_P2;Temp;Humidity;BMP_temperature;BMP_pressure;BME280_temperature;BME280_humidity;BME280_pressure;Samples;Min_cycle;Max_cycle;Signal;HPM_P1;HPM_P2
2023/01/07 00:01:43;;;;;;;11.27;5.03;;;;;;;10.43;94.05;101551.66;4859382;29;20046;-68
2023/01/07 00:04:14;;;;;;;7.55;5.10;;;;;;;10.43;94.09;101551.66;4865106;29;20052;-69
2023/01/07 00:06:43;;;;;;;8.13;5.10;;;;;;;10.44;94.05;101542.88;4870232;29;20052;-69
2023/01/07 00:09:15;;;;;;;5.68;4.57;;;;;;;10.47;93.73;101550.72;4865687;29;20054;-68
2023/01/07 00:11:43;;;;;;;8.52;4.90;;;;;;;10.46;93.79;101541.06;4861173;29;20133;-68
2023/01/07 00:14:12;;;;;;;5.72;4.63;;;;;;;10.45;93.83;101536.69;4868351;29;20515;-68
2023/01/07 00:16:40;;;;;;;6.07;4.75;;;;;;;10.44;93.83;101530.53;4870473;29;20161;-68
2023/01/07 00:19:12;;;;;;;7.47;4.88;;;;;;;10.42;93.73;101532.34;4872741;29;20049;-68
2023/01/07 00:21:40;;;;;;;7.25;4.70;;;;;;;10.44;93.83;101530.53;4868160;29;20133;-69
2023/01/07 00:24:10;;;;;;;6.43;4.72;;;;;;;10.45;93.85;101534.91;4868945;29;20073;-69
2023/01/07 00:26:39;;;;;;;6.20;4.57;;;;;;;10.45;93.80;101534.06;4874216;29;20109;-68
2023/01/07 00:29:07;;;;;;;8.32;4.70;;;;;;;10.45;93.76;101526.16;4864890;29;20928;-69
2023/01/07 00:31:38;;;;;;;5.88;4.47;;;;;;;10.44;93.64;101529.69;4872823;29;20518;-68
2023/01/07 00:34:07;;;;;;;6.05;4.50;;;;;;;10.43;93.58;101515.63;4872471;29;20069;-69
2023/01/07 00:36:45;;;;;;;7.55;4.65;;;;;;;10.43;93.58;101520.03;4859734;29;20053;-69
2023/01/07 00:39:16;;;;;;;7.88;4.45;;;;;;;10.42;93.59;101524.44;4854770;29;20050;-68
2023/01/07 00:44:32;;;;;;;6.32;4.30;;;;;;;10.44;93.55;101513.88;4864956;29;20049;-69
2023/01/07 00:46:59;;;;;;;6.97;4.30;;;;;;;10.44;93.33;101519.13;4873891;29;20080;-70
2023/01/07 00:49:27;;;;;;;7.18;4.55;;;;;;;10.43;93.51;101515.63;4865858;29;20544;-69
2023/01/07 00:51:54;;;;;;;6.95;4.38;;;;;;;10.42;93.45;101513.91;4863041;29;20558;-70
2023/01/07 00:54:21;;;;;;;6.45;4.43;;;;;;;10.40;93.32;101516.56;4864386;29;20189;-71
2023/01/07 00:56:49;;;;;;;5.22;4.00;;;;;;;10.37;93.42;101510.44;4869135;29;20051;-70
2023/01/07 00:59:16;;;;;;;7.75;4.18;;;;;;;10.36;93.37;101511.34;4875559;29;20134;-70
2023/01/07 01:01:44;;;;;;;6.47;3.92;;;;;;;10.35;93.49;101509.59;4862178;29;20558;-70
2023/01/07 01:04:11;;;;;;;4.30;3.90;;;;;;;10.36;93.52;101508.69;4867566;29;20513;-69
2023/01/07 01:06:38;;;;;;;6.90;4.32;;;;;;;10.35;93.37;101501.69;4869689;29;20827;-69
2023/01/07 01:09:06;;;;;;;5.78;4.10;;;;;;;10.35;93.53;101502.56;4869519;29;20085;-69
2023/01/07 01:11:33;;;;;;;5.68;3.88;;;;;;;10.33;93.54;101496.44;4861615;29;20041;-68
2023/01/07 01:14:00;;;;;;;6.18;4.00;;;;;;;10.33;93.27;101492.94;4860597;29;20053;-69
2023/01/07 01:16:27;;;;;;;6.53;4.03;;;;;;;10.31;93.36;101500.03;4872534;29;20049;-69
2023/01/07 01:18:54;;;;;;;6.25;3.95;;;;;;;10.29;93.31;101496.53;4867640;29;20042;-70
2023/01/07 01:21:21;;;;;;;6.70;4.10;;;;;;;10.25;93.07;101495.72;4869013;29;20060;-70
2023/01/07 01:23:48;;;;;;;5.88;4.15;;;;;;;10.20;92.96;101492.28;4870441;29;20048;-67
2023/01/07 01:26:16;;;;;;;5.50;4.28;;;;;;;10.14;92.95;101487.16;4873086;29;20478;-68
2023/01/07 01:28:44;;;;;;;6.50;4.32;;;;;;;10.07;92.84;101496.94;4871527;29;20442;-70
2023/01/07 01:31:15;;;;;;;5.85;4.30;;;;;;;10.01;92.87;101483.88;4887804;29;20042;-70
2023/01/07 01:33:52;;;;;;;7.53;4.13;;;;;;;9.97;93.04;101490.09;4870819;29;20124;-70
2023/01/07 01:36:22;;;;;;;5.45;4.28;;;;;;;9.90;93.38;101487.56;4866063;29;20046;-69
2023/01/07 01:38:50;;;;;;;7.47;4.22;;;;;;;9.85;93.44;101485.91;4866413;29;20056;-69
2023/01/07 01:41:18;;;;;;;7.22;4.35;;;;;;;9.79;93.36;101481.59;4872050;29;20975;-69
2023/01/07 01:43:49;;;;;;;6.30;4.53;;;;;;;9.76;93.54;101489.53;4868352;29;20049;-69
2023/01/07 01:46:40;;;;;;;6.32;4.30;;;;;;;9.71;93.75;101487.00;4871186;29;20111;-70
2023/01/07 01:49:26;;;;;;;7.55;4.72;;;;;;;9.69;93.87;101480.88;4868497;29;20077;-70
2023/01/07 01:52:08;;;;;;;6.10;4.18;;;;;;;9.66;94.02;101475.69;4869609;29;20541;-68
2023/01/07 01:54:40;;;;;;;6.20;4.30;;;;;;;9.62;93.87;101482.72;4856329;29;20130;-68
2023/01/07 01:57:08;;;;;;;6.20;4.30;;;;;;;9.59;93.95;101477.53;4855823;29;20054;-66
2023/01/07 01:59:45;;;;;;;6.55;4.43;;;;;;;9.55;94.03;101473.22;4865520;29;20049;-69
2023/01/07 02:02:21;;;;;;;6.07;4.47;;;;;;;9.54;94.30;101471.47;4870220;29;20120;-69
2023/01/07 02:04:49;;;;;;;6.05;4.70;;;;;;;9.52;94.32;101475.88;4868804;29;20053;-69
2023/01/07 02:07:16;;;;;;;6.13;4.20;;;;;;;9.49;94.42;101473.31;4864248;29;22149;-69
2023/01/07 02:10:21;;;;;;;5.88;4.57;;;;;;;9.47;94.55;101464.56;4871097;29;20088;-69
2023/01/07 02:13:28;;;;;;;7.32;4.22;;;;;;;9.46;94.71;101466.31;4863027;29;20068;-68
2023/01/07 02:16:32;;;;;;;8.43;4.80;;;;;;;9.48;94.91;101461.91;4868730;29;20096;-68
2023/01/07 02:19:31;;;;;;;5.97;4.22;;;;;;;9.51;95.05;101468.91;4871642;29;20049;-68
2023/01/07 02:22:09;;;;;;;7.65;4.50;;;;;;;9.56;95.24;101461.78;4868869;29;20050;-69
2023/01/07 02:25:20;;;;;;;6.88;4.43;;;;;;;9.61;95.25;101465.19;4869294;29;20050;-69
2023/01/07 02:28:25;;;;;;;5.30;4.05;;;;;;;9.65;95.50;101466.03;4850968;29;20062;-69
2023/01/07 02:31:22;;;;;;;5.68;4.20;;;;;;;9.73;95.41;101465.88;4866141;29;20049;-69
2023/01/07 02:34:19;;;;;;;5.32;3.83;;;;;;;9.75;95.40;101467.63;4862126;29;20065;-69
2023/01/07 02:37:15;;;;;;;5.28;4.00;;;;;;;9.75;95.19;101466.75;4867281;29;20049;-67
2023/01/07 02:40:34;;;;;;;5.90;4.00;;;;;;;9.74;95.11;101455.34;4870334;29;20093;-68
2023/01/07 02:43:49;;;;;;;5.57;3.78;;;;;;;9.77;95.30;101473.72;4864368;29;20098;-68
2023/01/07 02:46:45;;;;;;;5.75;4.05;;;;;;;9.78;95.21;101464.91;4857552;29;20712;-68
2023/01/07 02:49:17;;;;;;;7.68;3.90;;;;;;;9.84;95.48;101463.09;4870523;29;20626;-68
2023/01/07 02:51:46;;;;;;;8.70;3.90;;;;;;;9.88;95.42;101459.50;4864922;29;20048;-68
2023/01/07 02:54:22;;;;;;;4.72;3.67;;;;;;;9.94;95.57;101456.78;4868645;29;20048;-68
2023/01/07 02:57:35;;;;;;;8.10;4.13;;;;;;;9.95;95.03;101451.47;4860954;29;20634;-68
2023/01/07 03:00:40;;;;;;;5.13;3.80;;;;;;;10.02;95.33;101454.88;4880213;29;20111;-68
2023/01/07 03:03:35;;;;;;;5.65;3.75;;;;;;;10.05;95.08;101444.28;4865865;29;20050;-68
2023/01/07 03:06:50;;;;;;;;;;;;;;;10.04;95.06;101439.03;4863316;29;20046;-68
2023/01/07 03:09:56;;;;;;;5.93;3.50;;;;;;;10.06;94.87;101431.97;4867811;29;19928;-69
2023/01/07 03:12:38;;;;;;;9.98;4.00;;;;;;;10.05;94.84;101430.22;4864821;29;20053;-68
2023/01/07 03:15:34;;;;;;;6.13;3.90;;;;;;;10.06;94.65;101427.59;4856707;29;20152;-69
2023/01/07 03:18:19;;;;;;;4.63;3.42;;;;;;;10.04;94.44;101432.00;4878978;29;20124;-68
2023/01/07 03:20:53;;;;;;;6.07;3.38;;;;;;;10.01;94.45;101423.28;4865625;29;20047;-68
2023/01/07 03:23:27;;;;;;;3.78;3.38;;;;;;;9.99;94.15;101419.81;4865950;29;20144;-68
2023/01/07 03:25:59;;;;;;;4.03;3.50;;;;;;;9.93;94.19;101419.00;4865353;29;20125;-68
2023/01/07 03:28:31;;;;;;;5.32;3.38;;;;;;;9.91;94.10;101414.69;4865625;29;20056;-68
2023/01/07 03:31:01;;;;;;;6.03;3.55;;;;;;;9.87;93.97;101410.38;4885752;29;20050;-68
2023/01/07 03:33:49;;;;;;;4.50;3.30;;;;;;;9.80;94.10;101409.63;4870958;29;20042;-68
2023/01/07 03:36:24;;;;;;;7.55;3.75;;;;;;;9.78;94.08;101419.31;4870796;29;20050;-68
2023/01/07 03:38:55;;;;;;;6.97;3.60;;;;;;;9.76;94.33;101410.56;4872066;29;20053;-68
2023/01/07 03:44:11;;;;;;;5.53;3.33;;;;;;;9.75;94.39;101404.44;4873608;29;20054;-68
2023/01/07 03:46:39;;;;;;;5.68;3.30;;;;;;;9.77;94.64;101401.75;4869644;29;20053;-68
2023/01/07 03:49:06;;;;;;;5.55;3.60;;;;;;;9.76;94.74;101406.19;4867931;29;20077;-68
2023/01/07 03:51:35;;;;;;;4.63;3.65;;;;;;;9.78;94.70;101400.88;4862930;29;20537;-68
2023/01/07 03:54:02;;;;;;;5.93;3.72;;;;;;;9.78;94.67;101395.59;4871883;29;20961;-69
2023/01/07 03:56:30;;;;;;;5.60;3.25;;;;;;;9.75;94.58;101396.53;4872747;29;20494;-68
2023/01/07 03:58:57;;;;;;;7.47;3.45;;;;;;;9.73;94.40;101390.41;4873606;29;20046;-68
2023/01/07 04:01:24;;;;;;;5.85;3.35;;;;;;;9.71;94.55;101388.72;4872962;29;20765;-68
2023/01/07 04:03:51;;;;;;;5.45;3.17;;;;;;;9.67;94.55;101382.63;4867554;29;20053;-68
2023/01/07 04:06:18;;;;;;;6.00;3.28;;;;;;;9.66;94.59;101387.91;4865749;29;20647;-68
2023/01/07 04:08:45;;;;;;;5.22;3.30;;;;;;;9.65;94.73;101384.44;4884493;29;20129;-68
2023/01/07 04:11:13;;;;;;;4.13;2.85;;;;;;;9.63;94.68;101376.53;4870788;29;20053;-68
2023/01/07 04:13:40;;;;;;;3.85;3.10;;;;;;;9.61;94.79;101385.38;4869104;29;20050;-68
2023/01/07 04:16:07;;;;;;;6.00;3.60;;;;;;;9.59;94.89;101377.50;4869329;29;20563;-68
2023/01/07 04:18:34;;;;;;;6.57;3.30;;;;;;;9.59;94.85;101379.25;4869446;29;20181;-69
2023/01/07 04:21:02;;;;;;;5.40;3.17;;;;;;;9.59;95.02;101366.09;4866198;29;20050;-68
2023/01/07 04:23:30;;;;;;;4.25;3.10;;;;;;;9.58;94.84;101370.50;4896123;29;20076;-68
2023/01/07 04:25:57;;;;;;;4.75;2.97;;;;;;;9.56;94.96;101356.50;4861128;29;20297;-68
2023/01/07 04:28:25;;;;;;;5.22;3.30;;;;;;;9.52;94.90;101357.44;4870403;29;20060;-68
2023/01/07 04:30:52;;;;;;;5.40;3.40;;;;;;;9.48;94.95;101355.78;4867619;29;20556;-68
2023/01/07 04:33:21;;;;;;;5.45;3.05;;;;;;;9.45;94.95;101356.69;4870605;29;20058;-69
2023/01/07 04:35:48;;;;;;;5.07;2.90;;;;;;;9.42;94.88;101347.97;4868920;29;20045;-69
2023/01/07 04:38:16;;;;;;;6.43;3.10;;;;;;;9.40;95.08;101349.78;4866226;29;20050;-68
2023/01/07 04:40:43;;;;;;;6.03;3.00;;;;;;;9.40;95.22;101342.75;4871260;29;20128;-68
2023/01/07 04:43:11;;;;;;;4.10;3.05;;;;;;;9.40;95.31;101339.25;4866687;29;20055;-68
2023/01/07 04:45:39;;;;;;;3.95;3.08;;;;;;;9.42;95.57;101335.69;4870841;29;20057;-69
2023/01/07 04:48:07;;;;;;;3.85;3.05;;;;;;;9.45;95.59;101327.75;4871495;29;20198;-68
2023/01/07 04:50:34;;;;;;;5.72;3.40;;;;;;;9.48;95.77;101325.03;4872538;29;20130;-68
2023/01/07 04:53:01;;;;;;;5.03;3.17;;;;;;;9.50;95.75;101327.66;4876301;29;20787;-68
2023/01/07 04:55:28;;;;;;;5.20;3.20;;;;;;;9.53;95.57;101330.22;4867484;29;20046;-69
2023/01/07 04:57:56;;;;;;;5.90;3.00;;;;;;;9.57;95.56;101324.00;4868947;29;20046;-70
2023/01/07 05:00:23;;;;;;;6.07;3.08;;;;;;;9.58;95.48;101322.25;4884485;29;20038;-70
2023/01/07 05:02:52;;;;;;;5.32;3.00;;;;;;;9.59;95.23;101321.34;4862137;29;20124;-68
2023/01/07 05:05:20;;;;;;;5.47;3.15;;;;;;;9.58;94.99;101311.72;4870155;29;20149;-69
2023/01/07 05:07:48;;;;;;;4.93;2.80;;;;;;;9.55;94.74;101304.75;4868427;29;20232;-69
2023/01/07 05:10:17;;;;;;;4.75;2.90;;;;;;;9.51;94.82;101296.94;4871764;29;20138;-69
2023/01/07 05:12:44;;;;;;;5.18;2.88;;;;;;;9.49;94.77;101296.97;4854752;29;20058;-70
2023/01/07 05:15:13;;;;;;;4.57;3.10;;;;;;;9.46;94.81;101292.63;4872484;29;20913;-69
2023/01/07 05:17:42;;;;;;;4.28;3.00;;;;;;;9.46;94.67;101299.66;4872178;29;20114;-69
2023/01/07 05:20:10;;;;;;;4.82;2.95;;;;;;;9.45;94.72;101300.53;4873170;29;20073;-69
2023/01/07 05:22:38;;;;;;;5.28;2.80;;;;;;;9.43;94.58;101299.69;4862551;29;20054;-69
2023/01/07 05:25:06;;;;;;;4.30;2.95;;;;;;;9.39;94.48;101300.66;4872411;29;20137;-69
2023/01/07 05:27:33;;;;;;;4.88;2.90;;;;;;;9.37;94.46;101300.69;4868118;29;20050;-69
2023/01/07 05:30:04;;;;;;;4.53;2.95;;;;;;;9.33;94.55;101297.25;4868468;29;20513;-67
2023/01/07 05:32:31;;;;;;;5.18;3.08;;;;;;;9.32;94.63;101302.53;4865922;29;20050;-67
2023/01/07 05:34:57;;;;;;;5.25;3.13;;;;;;;9.35;94.97;101299.88;4867372;29;20077;-68
2023/01/07 05:37:25;;;;;;;6.32;2.97;;;;;;;9.40;95.06;101302.41;4869694;29;20102;-67
2023/01/07 05:39:52;;;;;;;5.10;2.85;;;;;;;9.47;95.32;101296.97;4858539;29;20049;-67
2023/01/07 05:42:20;;;;;;;4.80;3.00;;;;;;;9.55;95.38;101298.63;4871172;29;20539;-69
2023/01/07 05:44:48;;;;;;;4.45;2.92;;;;;;;9.60;95.32;101296.75;4866884;29;20129;-69
2023/01/07 05:47:15;;;;;;;4.97;3.03;;;;;;;9.67;95.08;101301.00;4865432;29;20050;-69
2023/01/07 05:49:42;;;;;;;3.97;2.65;;;;;;;9.72;94.87;101293.00;4872203;29;20485;-68
2023/01/07 05:52:09;;;;;;;7.03;2.83;;;;;;;9.75;94.83;101300.88;4865906;29;20053;-68
2023/01/07 05:54:37;;;;;;;6.90;2.70;;;;;;;9.79;94.64;101295.50;4862965;29;20051;-69
2023/01/07 05:57:03;;;;;;;4.57;2.70;;;;;;;9.84;94.39;101297.19;4873276;29;20045;-68
2023/01/07 05:59:33;;;;;;;5.20;2.60;;;;;;;9.86;94.10;101291.00;4871262;29;20046;-68
2023/01/07 06:02:01;;;;;;;5.18;2.55;;;;;;;9.91;93.84;101290.91;4866662;29;20053;-69
2023/01/07 06:04:28;;;;;;;3.80;2.40;;;;;;;9.92;93.66;101290.00;4860777;29;20041;-68
2023/01/07 06:06:55;;;;;;;4.45;2.30;;;;;;;9.95;93.49;101287.31;4872492;29;20107;-69
2023/01/07 06:09:22;;;;;;;5.53;2.55;;;;;;;9.96;93.31;101286.41;4857873;29;20056;-69
2023/01/07 06:11:49;;;;;;;4.70;2.38;;;;;;;9.97;93.24;101285.50;4860015;29;20763;-70
2023/01/07 06:14:16;;;;;;;3.95;2.60;;;;;;;9.99;93.24;101288.97;4860755;29;20528;-69
2023/01/07 06:16:43;;;;;;;6.07;2.47;;;;;;;10.00;93.15;101282.81;4866569;29;20042;-70
2023/01/07 06:19:10;;;;;;;5.70;2.30;;;;;;;10.02;92.84;101274.88;4869170;29;20503;-70
2023/01/07 06:21:37;;;;;;;3.33;2.40;;;;;;;10.02;92.69;101280.16;4865610;29;20042;-70
2023/01/07 06:24:05;;;;;;;5.00;2.40;;;;;;;10.02;92.87;101275.75;4858154;29;20056;-69
2023/01/07 06:26:32;;;;;;;7.70;3.42;;;;;;;10.04;92.48;101276.59;4867572;29;21737;-69
2023/01/07 06:28:59;;;;;;;3.72;2.30;;;;;;;10.04;92.46;101273.06;4871037;29;20944;-69
2023/01/07 06:31:26;;;;;;;2.85;2.30;;;;;;;10.04;92.49;101273.06;4871501;29;20056;-70
2023/01/07 06:33:53;;;;;;;2.80;2.08;;;;;;;10.05;92.07;101259.00;4870487;29;20069;-70
2023/01/07 06:36:20;;;;;;;2.92;1.90;;;;;;;10.03;91.84;101251.13;4865189;29;20079;-69
2023/01/07 06:38:47;;;;;;;4.10;2.17;;;;;;;10.05;91.51;101253.72;4864459;29;20090;-67
2023/01/07 06:41:14;;;;;;;4.35;2.17;;;;;;;10.02;91.50;101244.13;4863190;29;20082;-67
2023/01/07 06:43:41;;;;;;;2.70;1.90;;;;;;;10.03;91.63;101247.63;4863296;29;20050;-69
2023/01/07 06:46:09;;;;;;;2.45;1.80;;;;;;;10.04;91.17;101233.56;4861953;29;20050;-69
2023/01/07 06:48:36;;;;;;;6.30;2.15;;;;;;;10.03;90.99;101237.09;4864924;29;20062;-68
2023/01/07 06:51:03;;;;;;;4.28;1.95;;;;;;;10.03;91.12;101237.97;4859487;29;20054;-69
2023/01/07 06:53:30;;;;;;;2.70;2.00;;;;;;;10.03;90.93;101226.53;4858407;29;20114;-70
2023/01/07 06:55:57;;;;;;;3.00;1.88;;;;;;;10.02;90.85;101230.09;4862307;29;20049;-69
2023/01/07 06:58:24;;;;;;;2.03;1.75;;;;;;;10.02;90.86;101233.59;4858954;29;20507;-69
2023/01/07 07:00:51;;;;;;;4.57;2.17;;;;;;;10.03;90.39;101227.44;4862195;29;20045;-70
2023/01/07 07:03:18;;;;;;;2.22;1.60;;;;;;;10.03;89.90;101221.28;4864600;29;20518;-69
2023/01/07 07:05:46;;;;;;;3.30;1.50;;;;;;;10.02;89.70;101219.56;4869679;29;20045;-68
2023/01/07 07:08:13;;;;;;;4.47;1.55;;;;;;;10.02;89.65;101217.78;4865247;29;20644;-68
2023/01/07 07:10:40;;;;;;;2.60;1.70;;;;;;;10.04;89.59;101209.84;4864371;29;20535;-67
2023/01/07 07:13:07;;;;;;;3.42;1.50;;;;;;;10.04;89.34;101209.84;4874712;29;20868;-67
2023/01/07 07:15:34;;;;;;;2.33;1.30;;;;;;;10.03;89.43;101205.47;4873430;29;20046;-68
2023/01/07 07:18:01;;;;;;;1.80;1.20;;;;;;;10.02;89.50;101204.63;4868148;29;20585;-68
2023/01/07 07:20:28;;;;;;;3.63;1.40;;;;;;;10.02;88.96;101217.78;4868469;29;20057;-68
2023/01/07 07:22:55;;;;;;;2.20;1.60;;;;;;;10.01;88.98;101212.56;4873774;29;20057;-68
2023/01/07 07:25:23;;;;;;;2.33;1.30;;;;;;;10.01;88.69;101210.78;4866744;29;20049;-68
2023/01/07 07:27:49;;;;;;;2.03;1.25;;;;;;;10.01;88.24;101207.28;4873949;29;20045;-68
2023/01/07 07:30:17;;;;;;;3.20;1.50;;;;;;;10.02;88.15;101209.88;4872413;29;20049;-69
2023/01/07 07:32:44;;;;;;;1.92;1.15;;;;;;;10.02;88.03;101209.88;4869850;29;20522;-68
2023/01/07 07:35:12;;;;;;;2.28;1.30;;;;;;;10.02;87.99;101204.63;4869044;29;20050;-69
2023/01/07 07:37:39;;;;;;;2.33;1.10;;;;;;;10.02;88.05;101195.88;4871245;29;20045;-69
2023/01/07 07:40:08;;;;;;;1.60;1.20;;;;;;;10.03;87.77;101189.66;4871237;29;20057;-68
2023/01/07 07:42:37;;;;;;;1.73;1.30;;;;;;;10.03;87.86;101189.66;4871826;29;20212;-69
2023/01/07 07:45:24;;;;;;;1.50;1.27;;;;;;;10.04;87.47;101188.78;4866219;29;20054;-69
2023/01/07 07:47:51;;;;;;;2.30;1.45;;;;;;;10.04;87.63;101186.13;4870365;29;20045;-69
2023/01/07 07:50:18;;;;;;;3.03;1.40;;;;;;;10.05;87.51;101185.25;4866981;29;20053;-69
2023/01/07 07:52:45;;;;;;;2.42;1.45;;;;;;;10.03;87.26;101190.56;4866634;29;20045;-69
2023/01/07 07:55:13;;;;;;;2.95;1.33;;;;;;;10.04;87.01;101186.13;4869003;29;20195;-68
2023/01/07 07:57:57;;;;;;;2.95;1.60;;;;;;;10.03;86.82;101181.75;4869095;29;20049;-69
2023/01/07 08:00:24;;;;;;;3.30;1.60;;;;;;;10.03;86.91;101182.66;4861808;29;20121;-68
2023/01/07 08:02:51;;;;;;;6.22;1.67;;;;;;;10.03;86.82;101181.75;4861427;29;20046;-68
2023/01/07 08:05:18;;;;;;;2.78;1.30;;;;;;;10.02;86.71;101182.69;4866422;29;20182;-68
2023/01/07 08:07:45;;;;;;;3.05;1.25;;;;;;;10.03;86.38;101180.00;4874415;29;20041;-68
2023/01/07 08:10:12;;;;;;;3.80;1.38;;;;;;;10.02;86.06;101178.28;4865798;29;20045;-69
2023/01/07 08:12:39;;;;;;;3.92;1.40;;;;;;;10.03;85.96;101179.13;4872579;29;20145;-68
2023/01/07 08:15:08;;;;;;;3.10;1.20;;;;;;;10.05;85.61;101179.97;4860140;29;20054;-69
2023/01/07 08:17:35;;;;;;;2.38;1.23;;;;;;;10.06;85.70;101176.44;4868619;29;20049;-68
2023/01/07 08:20:07;;;;;;;3.08;1.30;;;;;;;10.12;85.80;101178.06;4868321;29;20046;-68
2023/01/07 08:22:34;;;;;;;2.25;1.17;;;;;;;10.12;85.39;101168.41;4884616;29;20125;-68
2023/01/07 08:25:02;;;;;;;1.23;1.02;;;;;;;10.14;85.19;101173.63;4867363;29;20038;-68
2023/01/07 08:27:29;;;;;;;2.33;1.25;;;;;;;10.14;84.86;101163.94;4864993;29;20057;-69
2023/01/07 08:29:57;;;;;;;2.25;1.30;;;;;;;10.15;84.97;101167.47;4868590;29;20148;-69
2023/01/07 08:32:24;;;;;;;2.17;1.10;;;;;;;10.17;85.01;101163.88;4868110;29;20890;-69
2023/01/07 08:34:51;;;;;;;2.15;1.10;;;;;;;10.22;85.04;101164.66;4866096;29;20434;-69
2023/01/07 08:37:18;;;;;;;2.78;1.05;;;;;;;10.29;84.89;101160.09;4863694;29;20046;-69
2023/01/07 08:39:45;;;;;;;1.83;1.00;;;;;;;10.35;84.83;101164.34;4869197;29;20669;-68
2023/01/07 08:42:13;;;;;;;2.13;1.15;;;;;;;10.42;84.75;101158.06;4862231;29;20038;-69
2023/01/07 08:44:40;;;;;;;2.05;1.27;;;;;;;10.46;83.97;101157.06;4873587;29;20092;-68
2023/01/07 08:47:07;;;;;;;2.20;1.08;;;;;;;10.50;83.91;101142.94;4866493;29;20092;-69
2023/01/07 08:49:35;;;;;;;3.22;1.17;;;;;;;10.59;83.33;101148.88;4864237;29;20050;-69
2023/01/07 08:52:02;;;;;;;1.92;1.02;;;;;;;10.66;82.43;101139.88;4864592;29;20114;-68
2023/01/07 08:54:29;;;;;;;1.92;1.20;;;;;;;10.70;81.65;101144.19;4870251;29;20581;-68
2023/01/07 08:56:56;;;;;;;3.25;1.20;;;;;;;10.73;81.90;101144.13;4870725;29;20604;-68
2023/01/07 08:59:24;;;;;;;2.28;1.23;;;;;;;10.76;81.10;101144.00;4860468;29;20081;-68
2023/01/07 09:01:51;;;;;;;1.60;0.93;;;;;;;10.78;81.50;101138.72;4874035;29;20130;-68
2023/01/07 09:04:18;;;;;;;2.05;0.90;;;;;;;10.81;81.49;101135.97;4856729;29;20060;-67
2023/01/07 09:06:46;;;;;;;1.88;1.10;;;;;;;10.84;81.23;101130.63;4859990;29;20052;-67
2023/01/07 09:09:15;;;;;;;0.98;0.88;;;;;;;10.86;81.09;101132.31;4857563;29;20057;-68
2023/01/07 09:11:42;;;;;;;1.45;0.90;;;;;;;10.92;80.80;101127.78;4860475;29;20060;-68
2023/01/07 09:14:10;;;;;;;1.05;0.80;;;;;;;10.92;81.03;101136.56;4858435;29;20786;-68
2023/01/07 09:16:37;;;;;;;2.38;0.90;;;;;;;10.95;80.71;101133.84;4862836;29;20046;-68
2023/01/07 09:19:04;;;;;;;2.20;1.38;;;;;;;11.00;80.05;101129.31;4865475;29;20052;-67
2023/01/07 09:21:31;;;;;;;1.77;0.90;;;;;;;11.01;79.56;101122.28;4868300;29;20050;-68
2023/01/07 09:23:58;;;;;;;2.60;1.58;;;;;;;10.99;79.56;101121.44;4866962;29;20098;-68
2023/01/07 09:26:25;;;;;;;1.58;0.93;;;;;;;10.96;79.08;101122.41;4874011;29;20041;-67
2023/01/07 09:28:52;;;;;;;1.27;1.10;;;;;;;10.93;79.10;101127.75;4868335;29;20053;-68
2023/01/07 09:31:20;;;;;;;1.90;1.30;;;;;;;10.92;79.41;101122.53;4862366;29;20401;-67
2023/01/07 09:33:50;;;;;;;2.83;1.40;;;;;;;10.94;79.34;101123.31;4873324;29;20052;-67
2023/01/07 09:36:17;;;;;;;2.42;1.20;;;;;;;10.96;79.41;101116.25;4873588;29;20173;-68
2023/01/07 09:38:44;;;;;;;3.25;1.70;;;;;;;10.98;79.56;101120.59;4870898;29;20120;-68
2023/01/07 09:41:57;;;;;;;5.30;3.42;;;;;;;11.00;79.22;101108.19;4874303;29;20049;-67
2023/01/07 09:45:10;;;;;;;1.70;1.00;;;;;;;11.03;78.74;101110.75;4866174;29;20095;-68
2023/01/07 09:47:48;;;;;;;5.80;2.97;;;;;;;11.05;79.06;101102.78;4861022;29;20046;-68
2023/01/07 09:50:40;;;;;;;3.85;1.80;;;;;;;11.07;78.88;101100.97;4868905;29;20046;-67
2023/01/07 09:53:18;;;;;;;2.97;1.40;;;;;;;11.13;78.39;101100.81;4872149;29;20053;-68
2023/01/07 09:55:48;;;;;;;1.77;1.13;;;;;;;11.17;78.21;101096.31;4857048;29;20046;-67
2023/01/07 09:58:37;;;;;;;1.63;1.05;;;;;;;11.24;77.42;101097.88;4854183;29;20062;-67
2023/01/07 10:01:16;;;;;;;2.88;1.10;;;;;;;11.26;77.24;101090.78;4873481;29;20049;-68
2023/01/07 10:03:58;;;;;;;5.28;2.63;;;;;;;11.30;77.16;101089.75;4869593;29;20053;-68
2023/01/07 10:06:41;;;;;;;3.05;1.50;;;;;;;11.34;77.10;101086.13;4859635;29;20530;-68
2023/01/07 10:09:44;;;;;;;3.92;1.50;;;;;;;11.42;76.29;101085.91;4867408;29;20050;-69
2023/01/07 10:12:43;;;;;;;5.13;1.80;;;;;;;11.51;75.30;101076.81;4866368;29;20088;-68
2023/01/07 10:15:55;;;;;;;6.97;5.00;;;;;;;11.63;74.86;101070.31;4868536;29;20045;-69
2023/01/07 10:18:36;;;;;;;5.03;3.55;;;;;;;11.68;74.77;101064.91;4866975;29;20041;-68
2023/01/07 10:21:13;;;;;;;3.55;2.80;;;;;;;11.76;74.55;101061.06;4866461;29;20083;-68
2023/01/07 10:23:51;;;;;;;3.97;2.22;;;;;;;11.86;74.17;101050.22;4871285;29;20057;-68
2023/01/07 10:26:41;;;;;;;7.60;3.92;;;;;;;12.00;73.31;101052.47;4867577;29;20050;-68
2023/01/07 10:29:18;;;;;;;9.82;6.00;;;;;;;12.03;73.08;101045.31;4859460;29;20046;-69
2023/01/07 10:31:47;;;;;;;6.82;4.15;;;;;;;12.09;73.13;101049.53;4870578;29;20481;-68
2023/01/07 10:34:26;;;;;;;2.90;2.05;;;;;;;12.10;72.62;101038.03;4873370;29;20056;-69
2023/01/07 10:37:05;;;;;;;3.03;2.00;;;;;;;12.14;71.91;101028.22;4865262;29;20076;-69
2023/01/07 10:39:51;;;;;;;6.53;3.78;;;;;;;12.11;72.28;101018.59;4870251;29;20049;-69
2023/01/07 10:42:36;;;;;;;5.95;3.88;;;;;;;12.12;72.65;101004.47;4863367;29;20065;-69
2023/01/07 10:45:44;;;;;;;5.55;3.15;;;;;;;12.14;71.67;100993.88;4870794;29;20598;-69
2023/01/07 10:48:50;;;;;;;4.40;3.00;;;;;;;12.11;71.10;100986.88;4854579;29;20065;-69
2023/01/07 10:51:48;;;;;;;3.35;1.55;;;;;;;12.10;71.23;100979.91;4857979;29;20042;-69
2023/01/07 10:55:16;;;;;;;4.18;2.25;;;;;;;12.11;70.68;100971.03;4884807;29;20465;-70
2023/01/07 10:57:46;;;;;;;2.97;2.08;;;;;;;12.12;70.73;100956.91;4870324;29;20049;-71
2023/01/07 11:00:17;;;;;;;2.55;1.90;;;;;;;12.15;71.03;100958.59;4869805;29;20149;-73
2023/01/07 11:02:53;;;;;;;2.63;1.50;;;;;;;12.16;70.35;100952.41;4865578;29;21202;-71
2023/01/07 11:05:23;;;;;;;2.60;1.58;;;;;;;12.15;70.73;100953.31;4867032;29;20659;-72
2023/01/07 11:07:56;;;;;;;5.10;2.60;;;;;;;12.18;69.60;100939.97;4863659;29;20128;-72
2023/01/07 11:10:29;;;;;;;3.25;2.00;;;;;;;12.20;68.53;100946.94;4864155;29;20479;-71
2023/01/07 11:13:17;;;;;;;3.25;2.05;;;;;;;12.21;68.73;100950.44;4870469;29;20066;-71
2023/01/07 11:15:55;;;;;;;3.72;2.10;;;;;;;12.20;68.65;100936.38;4867878;29;20045;-71
2023/01/07 11:18:46;;;;;;;3.63;1.90;;;;;;;12.24;69.29;100942.41;4874198;29;20049;-71
2023/01/07 11:21:42;;;;;;;2.72;1.30;;;;;;;12.26;69.24;100935.28;4865619;29;20042;-73
2023/01/07 11:24:23;;;;;;;2.63;1.83;;;;;;;12.24;67.37;100930.03;4863371;29;20511;-72
2023/01/07 11:26:51;;;;;;;5.50;1.52;;;;;;;12.24;67.91;100924.75;4863054;29;20045;-71
2023/01/07 11:29:26;;;;;;;3.03;1.55;;;;;;;12.29;68.86;100929.03;4858887;29;20073;-72
2023/01/07 11:32:02;;;;;;;2.28;1.25;;;;;;;12.33;68.57;100922.69;4859415;29;20590;-71
2023/01/07 11:34:48;;;;;;;0.80;0.60;;;;;;;12.32;67.74;100911.28;4863008;29;20042;-72
2023/01/07 11:37:41;;;;;;;1.98;1.17;;;;;;;12.33;68.25;100896.25;4856110;29;20074;-71
2023/01/07 11:40:14;;;;;;;2.28;0.88;;;;;;;12.31;67.55;100887.56;4862999;29;20126;-70
2023/01/07 11:43:03;;;;;;;2.10;1.15;;;;;;;12.31;66.82;100884.91;4869682;29;21405;-72
2023/01/07 11:45:47;;;;;;;1.30;0.85;;;;;;;12.29;67.11;100877.00;4868827;29;20037;-73
2023/01/07 11:48:41;;;;;;;3.08;0.90;;;;;;;12.29;65.57;100878.81;4863596;29;20138;-71
2023/01/07 11:51:10;;;;;;;2.88;1.40;;;;;;;12.27;66.29;100878.84;4866565;29;20117;-73
2023/01/07 11:53:47;;;;;;;1.35;0.90;;;;;;;12.27;66.43;100879.72;4865201;29;20053;-70
2023/01/07 11:56:20;;;;;;;1.00;0.80;;;;;;;12.31;66.75;100879.63;4864666;29;20050;-70
2023/01/07 11:59:22;;;;;;;2.45;0.70;;;;;;;12.33;66.94;100868.06;4866271;29;20083;-70
2023/01/07 12:01:58;;;;;;;2.40;0.80;;;;;;;12.36;66.80;100859.16;4865307;29;20053;-69
2023/01/07 12:04:33;;;;;;;1.08;0.60;;;;;;;12.35;66.55;100860.94;4864267;29;20730;-70
2023/01/07 12:07:12;;;;;;;1.60;0.80;;;;;;;12.39;66.50;100856.41;4869959;29;20452;-71